Terminal Aerodrome Forecast
Issued by NWS Lubbock, TX

Current Version | Previous Version | Text Only | Print | Product List | Glossary On
Versions: 1 2 3 4 5 6 7 8 9 10 11 12 13 14 15 16 17 18 19 20 21 22 23 24 25 26 27 28 29 30
000
FTUS44 KLUB 192200 AAC
TAFLBB
TAF AMD
KLBB 192220Z 1922/2018 VRB06KT 6SM BR OVC012
     FM200000 22006KT P6SM BKN015
     FM200400 11005KT 3SM BR OVC007
     FM201500 22010KT P6SM BKN250=

USA.gov is the U.S. government's official web portal to all federal, state and local government web resources and services.